sensor_id;sensor_type;location;lat;lon;timestamp;P1;durP1;ratioP1;P2;durP2;ratioP2
77724;SDS011;66892;53.236;6.550;2023-04-25T00:01:06;24.17;;;4.97;;
77724;SDS011;66892;53.236;6.550;2023-04-25T00:03:32;24.23;;;5.45;;
77724;SDS011;66892;53.236;6.550;2023-04-25T00:05:59;33.55;;;5.13;;
77724;SDS011;66892;53.236;6.550;2023-04-25T00:08:28;33.60;;;4.55;;
77724;SDS011;66892;53.236;6.550;2023-04-25T00:10:54;25.40;;;5.45;;
77724;SDS011;66892;53.236;6.550;2023-04-25T00:13:21;19.17;;;3.42;;
77724;SDS011;66892;53.236;6.550;2023-04-25T00:15:47;26.20;;;3.90;;
77724;SDS011;66892;53.236;6.550;2023-04-25T00:18:13;27.08;;;4.63;;
77724;SDS011;66892;53.236;6.550;2023-04-25T00:20:39;30.92;;;5.03;;
77724;SDS011;66892;53.236;6.550;2023-04-25T00:23:07;29.40;;;4.70;;
77724;SDS011;66892;53.236;6.550;2023-04-25T00:25:33;27.35;;;4.22;;
77724;SDS011;66892;53.236;6.550;2023-04-25T00:27:59;18.15;;;3.42;;
77724;SDS011;66892;53.236;6.550;2023-04-25T00:30:25;21.90;;;3.55;;
77724;SDS011;66892;53.236;6.550;2023-04-25T00:32:51;24.52;;;3.65;;
77724;SDS011;66892;53.236;6.550;2023-04-25T00:35:17;17.90;;;2.58;;
77724;SDS011;66892;53.236;6.550;2023-04-25T00:37:43;20.85;;;3.38;;
77724;SDS011;66892;53.236;6.550;2023-04-25T00:40:11;12.77;;;3.10;;
77724;SDS011;66892;53.236;6.550;2023-04-25T00:42:37;19.75;;;2.90;;
77724;SDS011;66892;53.236;6.550;2023-04-25T00:45:04;13.68;;;3.20;;
77724;SDS011;66892;53.236;6.550;2023-04-25T00:47:32;16.55;;;2.50;;
77724;SDS011;66892;53.236;6.550;2023-04-25T00:49:59;15.30;;;2.72;;
77724;SDS011;66892;53.236;6.550;2023-04-25T00:52:24;18.05;;;3.15;;
77724;SDS011;66892;53.236;6.550;2023-04-25T00:54:51;13.85;;;2.65;;
77724;SDS011;66892;53.236;6.550;2023-04-25T00:57:18;15.43;;;3.70;;
77724;SDS011;66892;53.236;6.550;2023-04-25T00:59:45;20.58;;;3.42;;
77724;SDS011;66892;53.236;6.550;2023-04-25T01:02:12;11.52;;;2.63;;
77724;SDS011;66892;53.236;6.550;2023-04-25T01:04:38;15.25;;;2.55;;
77724;SDS011;66892;53.236;6.550;2023-04-25T01:07:04;12.98;;;3.33;;
77724;SDS011;66892;53.236;6.550;2023-04-25T01:09:30;20.33;;;2.92;;
77724;SDS011;66892;53.236;6.550;2023-04-25T01:11:57;15.77;;;3.17;;
77724;SDS011;66892;53.236;6.550;2023-04-25T01:14:25;13.85;;;2.88;;
77724;SDS011;66892;53.236;6.550;2023-04-25T01:16:51;18.17;;;2.63;;
77724;SDS011;66892;53.236;6.550;2023-04-25T01:19:18;12.80;;;2.47;;
77724;SDS011;66892;53.236;6.550;2023-04-25T01:21:46;11.82;;;2.47;;
77724;SDS011;66892;53.236;6.550;2023-04-25T01:24:13;12.60;;;2.63;;
77724;SDS011;66892;53.236;6.550;2023-04-25T01:26:40;13.25;;;3.03;;
77724;SDS011;66892;53.236;6.550;2023-04-25T01:29:10;16.42;;;2.85;;
77724;SDS011;66892;53.236;6.550;2023-04-25T01:31:36;12.50;;;2.65;;
77724;SDS011;66892;53.236;6.550;2023-04-25T01:34:02;15.77;;;2.63;;
77724;SDS011;66892;53.236;6.550;2023-04-25T01:36:28;13.90;;;3.45;;
77724;SDS011;66892;53.236;6.550;2023-04-25T01:38:56;19.13;;;2.70;;
77724;SDS011;66892;53.236;6.550;2023-04-25T01:41:22;13.75;;;2.28;;
77724;SDS011;66892;53.236;6.550;2023-04-25T01:43:48;15.07;;;3.13;;
77724;SDS011;66892;53.236;6.550;2023-04-25T01:46:15;15.43;;;3.33;;
77724;SDS011;66892;53.236;6.550;2023-04-25T01:48:41;17.92;;;2.80;;
77724;SDS011;66892;53.236;6.550;2023-04-25T01:51:07;14.55;;;2.53;;
77724;SDS011;66892;53.236;6.550;2023-04-25T01:53:33;21.13;;;2.72;;
77724;SDS011;66892;53.236;6.550;2023-04-25T01:56:00;10.23;;;2.47;;
77724;SDS011;66892;53.236;6.550;2023-04-25T01:58:26;13.93;;;2.30;;
77724;SDS011;66892;53.236;6.550;2023-04-25T02:00:52;11.70;;;2.40;;
77724;SDS011;66892;53.236;6.550;2023-04-25T02:03:18;17.08;;;3.13;;
77724;SDS011;66892;53.236;6.550;2023-04-25T02:05:44;27.35;;;3.13;;
77724;SDS011;66892;53.236;6.550;2023-04-25T02:08:10;16.90;;;3.22;;
77724;SDS011;66892;53.236;6.550;2023-04-25T02:10:37;18.80;;;2.50;;
77724;SDS011;66892;53.236;6.550;2023-04-25T02:13:04;10.07;;;2.53;;
77724;SDS011;66892;53.236;6.550;2023-04-25T02:15:30;16.67;;;2.25;;
77724;SDS011;66892;53.236;6.550;2023-04-25T02:17:56;16.70;;;2.63;;
77724;SDS011;66892;53.236;6.550;2023-04-25T02:20:23;13.38;;;3.33;;
77724;SDS011;66892;53.236;6.550;2023-04-25T02:22:50;14.68;;;3.22;;
77724;SDS011;66892;53.236;6.550;2023-04-25T02:25:17;15.05;;;2.60;;
77724;SDS011;66892;53.236;6.550;2023-04-25T02:27:43;11.70;;;2.53;;
77724;SDS011;66892;53.236;6.550;2023-04-25T02:30:11;14.32;;;2.45;;
77724;SDS011;66892;53.236;6.550;2023-04-25T02:32:37;12.27;;;2.65;;
77724;SDS011;66892;53.236;6.550;2023-04-25T02:35:04;13.85;;;2.83;;
77724;SDS011;66892;53.236;6.550;2023-04-25T02:37:32;18.15;;;2.67;;
77724;SDS011;66892;53.236;6.550;2023-04-25T02:40:00;16.02;;;2.53;;
77724;SDS011;66892;53.236;6.550;2023-04-25T02:42:26;15.02;;;2.40;;
77724;SDS011;66892;53.236;6.550;2023-04-25T02:44:53;9.63;;;1.92;;
77724;SDS011;66892;53.236;6.550;2023-04-25T02:47:20;10.95;;;2.38;;
77724;SDS011;66892;53.236;6.550;2023-04-25T02:49:46;12.32;;;2.72;;
77724;SDS011;66892;53.236;6.550;2023-04-25T02:52:12;11.15;;;2.10;;
77724;SDS011;66892;53.236;6.550;2023-04-25T02:54:39;9.75;;;2.13;;
77724;SDS011;66892;53.236;6.550;2023-04-25T02:57:05;9.27;;;2.13;;
77724;SDS011;66892;53.236;6.550;2023-04-25T02:59:31;9.35;;;1.80;;
77724;SDS011;66892;53.236;6.550;2023-04-25T03:01:58;9.07;;;2.00;;
77724;SDS011;66892;53.236;6.550;2023-04-25T03:04:25;12.05;;;2.30;;
77724;SDS011;66892;53.236;6.550;2023-04-25T03:06:51;10.50;;;2.45;;
77724;SDS011;66892;53.236;6.550;2023-04-25T03:09:18;12.57;;;1.90;;
77724;SDS011;66892;53.236;6.550;2023-04-25T03:11:45;8.35;;;1.90;;
77724;SDS011;66892;53.236;6.550;2023-04-25T03:14:11;12.15;;;1.95;;
77724;SDS011;66892;53.236;6.550;2023-04-25T03:16:37;10.15;;;2.25;;
77724;SDS011;66892;53.236;6.550;2023-04-25T03:19:03;11.07;;;1.98;;
77724;SDS011;66892;53.236;6.550;2023-04-25T03:21:31;15.73;;;1.83;;
77724;SDS011;66892;53.236;6.550;2023-04-25T03:23:59;11.30;;;2.72;;
77724;SDS011;66892;53.236;6.550;2023-04-25T03:26:26;10.55;;;2.72;;
77724;SDS011;66892;53.236;6.550;2023-04-25T03:28:52;7.68;;;1.77;;
77724;SDS011;66892;53.236;6.550;2023-04-25T03:31:18;7.15;;;1.80;;
77724;SDS011;66892;53.236;6.550;2023-04-25T03:33:44;7.18;;;1.83;;
77724;SDS011;66892;53.236;6.550;2023-04-25T03:36:10;9.32;;;1.65;;
77724;SDS011;66892;53.236;6.550;2023-04-25T03:38:37;11.15;;;1.80;;
77724;SDS011;66892;53.236;6.550;2023-04-25T03:41:03;8.70;;;2.00;;
77724;SDS011;66892;53.236;6.550;2023-04-25T03:43:29;12.30;;;2.45;;
77724;SDS011;66892;53.236;6.550;2023-04-25T03:45:55;13.88;;;2.35;;
77724;SDS011;66892;53.236;6.550;2023-04-25T03:48:21;8.27;;;1.70;;
77724;SDS011;66892;53.236;6.550;2023-04-25T03:50:50;16.70;;;2.03;;
77724;SDS011;66892;53.236;6.550;2023-04-25T03:53:16;10.02;;;1.83;;
77724;SDS011;66892;53.236;6.550;2023-04-25T03:55:43;10.15;;;2.05;;
77724;SDS011;66892;53.236;6.550;2023-04-25T03:58:09;10.23;;;1.83;;
77724;SDS011;66892;53.236;6.550;2023-04-25T04:00:35;10.73;;;2.25;;
77724;SDS011;66892;53.236;6.550;2023-04-25T04:03:01;11.05;;;1.95;;
77724;SDS011;66892;53.236;6.550;2023-04-25T04:05:28;10.90;;;2.08;;
77724;SDS011;66892;53.236;6.550;2023-04-25T04:07:54;17.33;;;2.95;;
77724;SDS011;66892;53.236;6.550;2023-04-25T04:10:20;9.48;;;1.85;;
77724;SDS011;66892;53.236;6.550;2023-04-25T04:12:48;11.98;;;2.58;;
77724;SDS011;66892;53.236;6.550;2023-04-25T04:15:14;12.95;;;2.33;;
77724;SDS011;66892;53.236;6.550;2023-04-25T04:17:40;10.73;;;1.77;;
77724;SDS011;66892;53.236;6.550;2023-04-25T04:20:07;9.25;;;2.22;;
77724;SDS011;66892;53.236;6.550;2023-04-25T04:22:34;11.73;;;1.70;;
77724;SDS011;66892;53.236;6.550;2023-04-25T04:25:00;9.18;;;2.10;;
77724;SDS011;66892;53.236;6.550;2023-04-25T04:27:26;12.75;;;2.15;;
77724;SDS011;66892;53.236;6.550;2023-04-25T04:29:55;11.93;;;2.40;;
77724;SDS011;66892;53.236;6.550;2023-04-25T04:32:21;8.52;;;1.88;;
77724;SDS011;66892;53.236;6.550;2023-04-25T04:34:49;17.77;;;2.78;;
77724;SDS011;66892;53.236;6.550;2023-04-25T04:37:15;13.95;;;2.47;;
77724;SDS011;66892;53.236;6.550;2023-04-25T04:39:41;13.07;;;2.55;;
77724;SDS011;66892;53.236;6.550;2023-04-25T04:42:07;18.30;;;2.63;;
77724;SDS011;66892;53.236;6.550;2023-04-25T04:44:34;9.80;;;2.00;;
77724;SDS011;66892;53.236;6.550;2023-04-25T04:47:02;13.48;;;2.35;;
77724;SDS011;66892;53.236;6.550;2023-04-25T04:49:31;10.38;;;1.90;;
77724;SDS011;66892;53.236;6.550;2023-04-25T04:51:57;12.70;;;2.25;;
77724;SDS011;66892;53.236;6.550;2023-04-25T04:54:25;17.10;;;3.25;;
77724;SDS011;66892;53.236;6.550;2023-04-25T04:56:51;13.77;;;2.00;;
77724;SDS011;66892;53.236;6.550;2023-04-25T04:59:18;8.50;;;1.73;;
77724;SDS011;66892;53.236;6.550;2023-04-25T05:01:44;4.60;;;1.80;;
77724;SDS011;66892;53.236;6.550;2023-04-25T05:04:11;8.88;;;1.52;;
77724;SDS011;66892;53.236;6.550;2023-04-25T05:06:37;9.50;;;2.60;;
77724;SDS011;66892;53.236;6.550;2023-04-25T05:09:03;8.75;;;1.52;;
77724;SDS011;66892;53.236;6.550;2023-04-25T05:11:29;6.45;;;1.77;;
77724;SDS011;66892;53.236;6.550;2023-04-25T05:13:55;7.72;;;1.77;;
77724;SDS011;66892;53.236;6.550;2023-04-25T05:16:21;14.18;;;1.92;;
77724;SDS011;66892;53.236;6.550;2023-04-25T05:18:47;5.03;;;1.00;;
77724;SDS011;66892;53.236;6.550;2023-04-25T05:21:15;11.40;;;2.05;;
77724;SDS011;66892;53.236;6.550;2023-04-25T05:23:41;7.50;;;2.47;;
77724;SDS011;66892;53.236;6.550;2023-04-25T05:26:07;7.38;;;1.65;;
77724;SDS011;66892;53.236;6.550;2023-04-25T05:28:39;3.50;;;1.33;;
77724;SDS011;66892;53.236;6.550;2023-04-25T05:31:05;3.67;;;1.15;;
77724;SDS011;66892;53.236;6.550;2023-04-25T05:33:31;11.23;;;1.42;;
77724;SDS011;66892;53.236;6.550;2023-04-25T05:35:57;3.80;;;1.33;;
77724;SDS011;66892;53.236;6.550;2023-04-25T05:38:25;10.85;;;1.92;;
77724;SDS011;66892;53.236;6.550;2023-04-25T05:40:51;5.88;;;1.60;;
77724;SDS011;66892;53.236;6.550;2023-04-25T05:43:17;5.03;;;1.50;;
77724;SDS011;66892;53.236;6.550;2023-04-25T05:45:43;5.30;;;1.42;;
77724;SDS011;66892;53.236;6.550;2023-04-25T05:48:09;8.10;;;1.30;;
77724;SDS011;66892;53.236;6.550;2023-04-25T05:50:35;6.18;;;1.70;;
77724;SDS011;66892;53.236;6.550;2023-04-25T05:53:01;7.68;;;1.70;;
77724;SDS011;66892;53.236;6.550;2023-04-25T05:55:29;9.55;;;2.03;;
77724;SDS011;66892;53.236;6.550;2023-04-25T05:57:55;12.50;;;2.42;;
77724;SDS011;66892;53.236;6.550;2023-04-25T06:00:21;6.55;;;1.48;;
77724;SDS011;66892;53.236;6.550;2023-04-25T06:02:48;7.43;;;1.48;;
77724;SDS011;66892;53.236;6.550;2023-04-25T06:05:14;8.75;;;1.92;;
77724;SDS011;66892;53.236;6.550;2023-04-25T06:07:40;6.80;;;1.50;;
77724;SDS011;66892;53.236;6.550;2023-04-25T06:10:07;7.63;;;1.48;;
77724;SDS011;66892;53.236;6.550;2023-04-25T06:12:35;6.47;;;1.52;;
77724;SDS011;66892;53.236;6.550;2023-04-25T06:15:01;3.75;;;1.60;;
77724;SDS011;66892;53.236;6.550;2023-04-25T06:17:27;7.90;;;1.60;;
77724;SDS011;66892;53.236;6.550;2023-04-25T06:19:53;6.93;;;2.22;;
77724;SDS011;66892;53.236;6.550;2023-04-25T06:22:19;9.60;;;1.40;;
77724;SDS011;66892;53.236;6.550;2023-04-25T06:24:45;8.10;;;1.27;;
77724;SDS011;66892;53.236;6.550;2023-04-25T06:27:11;8.57;;;1.45;;
77724;SDS011;66892;53.236;6.550;2023-04-25T06:29:38;7.43;;;1.60;;
77724;SDS011;66892;53.236;6.550;2023-04-25T06:32:04;6.88;;;1.70;;
77724;SDS011;66892;53.236;6.550;2023-04-25T06:34:30;5.90;;;1.40;;
77724;SDS011;66892;53.236;6.550;2023-04-25T06:36:56;10.88;;;2.17;;
77724;SDS011;66892;53.236;6.550;2023-04-25T06:39:23;7.65;;;1.83;;
77724;SDS011;66892;53.236;6.550;2023-04-25T06:41:50;8.10;;;2.67;;
77724;SDS011;66892;53.236;6.550;2023-04-25T06:44:16;10.50;;;2.20;;
77724;SDS011;66892;53.236;6.550;2023-04-25T06:46:43;14.30;;;1.95;;
77724;SDS011;66892;53.236;6.550;2023-04-25T06:49:09;12.70;;;2.53;;
77724;SDS011;66892;53.236;6.550;2023-04-25T06:51:35;5.93;;;1.45;;
77724;SDS011;66892;53.236;6.550;2023-04-25T06:54:01;9.57;;;2.00;;
77724;SDS011;66892;53.236;6.550;2023-04-25T06:56:29;12.02;;;1.73;;
77724;SDS011;66892;53.236;6.550;2023-04-25T06:58:56;6.07;;;1.45;;
77724;SDS011;66892;53.236;6.550;2023-04-25T07:01:22;7.97;;;1.60;;
77724;SDS011;66892;53.236;6.550;2023-04-25T07:03:49;4.03;;;1.60;;
77724;SDS011;66892;53.236;6.550;2023-04-25T07:06:15;8.48;;;1.63;;
77724;SDS011;66892;53.236;6.550;2023-04-25T07:08:41;12.40;;;2.10;;
77724;SDS011;66892;53.236;6.550;2023-04-25T07:11:07;10.05;;;1.75;;
77724;SDS011;66892;53.236;6.550;2023-04-25T07:13:33;10.23;;;2.13;;
77724;SDS011;66892;53.236;6.550;2023-04-25T07:15:59;9.88;;;1.73;;
77724;SDS011;66892;53.236;6.550;2023-04-25T07:18:25;7.70;;;1.70;;
77724;SDS011;66892;53.236;6.550;2023-04-25T07:20:53;7.65;;;1.45;;
77724;SDS011;66892;53.236;6.550;2023-04-25T07:23:19;5.78;;;1.20;;
77724;SDS011;66892;53.236;6.550;2023-04-25T07:25:45;9.40;;;2.47;;
77724;SDS011;66892;53.236;6.550;2023-04-25T07:28:11;4.70;;;1.23;;
77724;SDS011;66892;53.236;6.550;2023-04-25T07:30:37;4.53;;;1.25;;
77724;SDS011;66892;53.236;6.550;2023-04-25T07:33:03;8.45;;;1.40;;
77724;SDS011;66892;53.236;6.550;2023-04-25T07:35:29;7.85;;;1.73;;
77724;SDS011;66892;53.236;6.550;2023-04-25T07:37:56;7.65;;;1.60;;
77724;SDS011;66892;53.236;6.550;2023-04-25T07:40:22;9.32;;;1.70;;
77724;SDS011;66892;53.236;6.550;2023-04-25T07:42:48;8.48;;;1.98;;
77724;SDS011;66892;53.236;6.550;2023-04-25T07:45:15;9.40;;;1.48;;
77724;SDS011;66892;53.236;6.550;2023-04-25T07:47:41;7.95;;;1.60;;
77724;SDS011;66892;53.236;6.550;2023-04-25T07:50:08;5.55;;;1.17;;
77724;SDS011;66892;53.236;6.550;2023-04-25T07:52:34;6.57;;;1.50;;
77724;SDS011;66892;53.236;6.550;2023-04-25T07:55:02;4.70;;;1.42;;
77724;SDS011;66892;53.236;6.550;2023-04-25T07:57:28;6.15;;;1.45;;
77724;SDS011;66892;53.236;6.550;2023-04-25T07:59:54;4.53;;;1.77;;
77724;SDS011;66892;53.236;6.550;2023-04-25T08:02:20;7.10;;;1.40;;
77724;SDS011;66892;53.236;6.550;2023-04-25T08:04:46;6.03;;;1.25;;
77724;SDS011;66892;53.236;6.550;2023-04-25T08:07:15;2.88;;;0.90;;
77724;SDS011;66892;53.236;6.550;2023-04-25T08:09:41;3.45;;;1.08;;
77724;SDS011;66892;53.236;6.550;2023-04-25T08:12:08;4.07;;;1.00;;
77724;SDS011;66892;53.236;6.550;2023-04-25T08:14:34;4.30;;;1.05;;
77724;SDS011;66892;53.236;6.550;2023-04-25T08:17:05;5.32;;;1.05;;
77724;SDS011;66892;53.236;6.550;2023-04-25T08:19:31;3.42;;;1.13;;
77724;SDS011;66892;53.236;6.550;2023-04-25T08:21:57;7.22;;;1.23;;
77724;SDS011;66892;53.236;6.550;2023-04-25T08:24:23;4.95;;;1.38;;
77724;SDS011;66892;53.236;6.550;2023-04-25T08:26:49;5.63;;;1.13;;
77724;SDS011;66892;53.236;6.550;2023-04-25T08:29:16;5.65;;;1.40;;
77724;SDS011;66892;53.236;6.550;2023-04-25T08:31:42;5.00;;;1.20;;
77724;SDS011;66892;53.236;6.550;2023-04-25T08:34:08;5.57;;;1.10;;
77724;SDS011;66892;53.236;6.550;2023-04-25T08:36:35;5.00;;;1.55;;
77724;SDS011;66892;53.236;6.550;2023-04-25T08:39:01;3.50;;;1.48;;
77724;SDS011;66892;53.236;6.550;2023-04-25T08:41:27;6.13;;;1.33;;
77724;SDS011;66892;53.236;6.550;2023-04-25T08:43:54;6.63;;;1.25;;
77724;SDS011;66892;53.236;6.550;2023-04-25T08:46:23;2.97;;;1.17;;
77724;SDS011;66892;53.236;6.550;2023-04-25T08:48:50;3.92;;;1.20;;
77724;SDS011;66892;53.236;6.550;2023-04-25T08:51:23;5.78;;;1.20;;
77724;SDS011;66892;53.236;6.550;2023-04-25T08:53:53;3.70;;;0.93;;
77724;SDS011;66892;53.236;6.550;2023-04-25T08:56:19;4.85;;;1.10;;
77724;SDS011;66892;53.236;6.550;2023-04-25T08:58:48;6.70;;;1.52;;
77724;SDS011;66892;53.236;6.550;2023-04-25T09:01:14;9.63;;;1.83;;
77724;SDS011;66892;53.236;6.550;2023-04-25T09:03:41;7.10;;;1.67;;
77724;SDS011;66892;53.236;6.550;2023-04-25T09:06:07;7.85;;;1.88;;
77724;SDS011;66892;53.236;6.550;2023-04-25T09:08:36;11.45;;;1.60;;
77724;SDS011;66892;53.236;6.550;2023-04-25T09:11:02;6.13;;;1.60;;
77724;SDS011;66892;53.236;6.550;2023-04-25T09:13:28;10.48;;;1.58;;
77724;SDS011;66892;53.236;6.550;2023-04-25T09:15:55;6.70;;;1.30;;
77724;SDS011;66892;53.236;6.550;2023-04-25T09:18:23;10.38;;;1.70;;
77724;SDS011;66892;53.236;6.550;2023-04-25T09:20:52;9.57;;;1.45;;
77724;SDS011;66892;53.236;6.550;2023-04-25T09:23:19;6.45;;;1.60;;
77724;SDS011;66892;53.236;6.550;2023-04-25T09:25:47;8.90;;;1.27;;
77724;SDS011;66892;53.236;6.550;2023-04-25T09:28:14;9.45;;;1.52;;
77724;SDS011;66892;53.236;6.550;2023-04-25T09:30:40;7.15;;;1.40;;
77724;SDS011;66892;53.236;6.550;2023-04-25T09:33:06;7.55;;;1.90;;
77724;SDS011;66892;53.236;6.550;2023-04-25T09:35:36;11.05;;;1.80;;
77724;SDS011;66892;53.236;6.550;2023-04-25T09:38:08;9.57;;;1.67;;
77724;SDS011;66892;53.236;6.550;2023-04-25T09:40:38;8.15;;;1.73;;
77724;SDS011;66892;53.236;6.550;2023-04-25T09:43:08;7.47;;;1.80;;
77724;SDS011;66892;53.236;6.550;2023-04-25T09:45:40;9.07;;;1.52;;
77724;SDS011;66892;53.236;6.550;2023-04-25T09:48:07;6.88;;;1.67;;
77724;SDS011;66892;53.236;6.550;2023-04-25T09:50:33;8.75;;;1.55;;
77724;SDS011;66892;53.236;6.550;2023-04-25T09:53:02;7.50;;;1.25;;
77724;SDS011;66892;53.236;6.550;2023-04-25T09:55:30;7.55;;;1.85;;
77724;SDS011;66892;53.236;6.550;2023-04-25T09:57:59;7.90;;;1.40;;
77724;SDS011;66892;53.236;6.550;2023-04-25T10:00:30;8.05;;;1.95;;
77724;SDS011;66892;53.236;6.550;2023-04-25T10:02:57;11.65;;;1.60;;
77724;SDS011;66892;53.236;6.550;2023-04-25T10:05:26;7.32;;;1.63;;
77724;SDS011;66892;53.236;6.550;2023-04-25T10:07:55;8.77;;;1.40;;
77724;SDS011;66892;53.236;6.550;2023-04-25T10:10:22;8.52;;;1.50;;
77724;SDS011;66892;53.236;6.550;2023-04-25T10:12:52;9.27;;;1.48;;
77724;SDS011;66892;53.236;6.550;2023-04-25T10:15:19;10.75;;;2.15;;
77724;SDS011;66892;53.236;6.550;2023-04-25T10:17:45;5.90;;;1.27;;
77724;SDS011;66892;53.236;6.550;2023-04-25T10:20:11;9.00;;;1.38;;
77724;SDS011;66892;53.236;6.550;2023-04-25T10:22:39;10.05;;;1.40;;
77724;SDS011;66892;53.236;6.550;2023-04-25T10:25:07;12.07;;;1.65;;
77724;SDS011;66892;53.236;6.550;2023-04-25T10:27:34;6.55;;;1.50;;
77724;SDS011;66892;53.236;6.550;2023-04-25T10:30:03;8.48;;;1.85;;
77724;SDS011;66892;53.236;6.550;2023-04-25T10:32:30;6.57;;;1.30;;
77724;SDS011;66892;53.236;6.550;2023-04-25T10:35:09;5.53;;;1.23;;
77724;SDS011;66892;53.236;6.550;2023-04-25T10:37:36;6.65;;;1.92;;
77724;SDS011;66892;53.236;6.550;2023-04-25T10:40:07;5.95;;;1.25;;
77724;SDS011;66892;53.236;6.550;2023-04-25T10:42:35;11.93;;;1.73;;
77724;SDS011;66892;53.236;6.550;2023-04-25T10:45:04;6.30;;;1.85;;
77724;SDS011;66892;53.236;6.550;2023-04-25T10:47:34;6.40;;;1.40;;
77724;SDS011;66892;53.236;6.550;2023-04-25T10:50:04;5.70;;;1.25;;
77724;SDS011;66892;53.236;6.550;2023-04-25T10:52:32;8.02;;;1.70;;
77724;SDS011;66892;53.236;6.550;2023-04-25T10:54:59;9.23;;;1.95;;
77724;SDS011;66892;53.236;6.550;2023-04-25T10:57:32;5.50;;;1.42;;
77724;SDS011;66892;53.236;6.550;2023-04-25T11:00:08;7.93;;;1.65;;
77724;SDS011;66892;53.236;6.550;2023-04-25T11:02:40;8.35;;;1.60;;
77724;SDS011;66892;53.236;6.550;2023-04-25T11:05:08;6.97;;;1.63;;
77724;SDS011;66892;53.236;6.550;2023-04-25T11:07:37;7.88;;;1.50;;
77724;SDS011;66892;53.236;6.550;2023-04-25T11:10:09;7.25;;;1.83;;
77724;SDS011;66892;53.236;6.550;2023-04-25T11:12:35;7.18;;;1.35;;
77724;SDS011;66892;53.236;6.550;2023-04-25T11:15:02;6.00;;;1.20;;
77724;SDS011;66892;53.236;6.550;2023-04-25T11:17:31;8.70;;;1.20;;
77724;SDS011;66892;53.236;6.550;2023-04-25T11:19:57;6.13;;;1.58;;
77724;SDS011;66892;53.236;6.550;2023-04-25T11:22:23;13.75;;;1.85;;
77724;SDS011;66892;53.236;6.550;2023-04-25T11:24:49;8.63;;;2.00;;
77724;SDS011;66892;53.236;6.550;2023-04-25T11:27:16;9.73;;;1.77;;
77724;SDS011;66892;53.236;6.550;2023-04-25T11:29:42;8.50;;;1.70;;
77724;SDS011;66892;53.236;6.550;2023-04-25T11:32:08;7.20;;;1.55;;
77724;SDS011;66892;53.236;6.550;2023-04-25T11:34:36;6.28;;;1.38;;
77724;SDS011;66892;53.236;6.550;2023-04-25T11:37:02;8.32;;;1.70;;
77724;SDS011;66892;53.236;6.550;2023-04-25T11:39:28;7.95;;;1.98;;
77724;SDS011;66892;53.236;6.550;2023-04-25T11:41:55;8.60;;;2.03;;
77724;SDS011;66892;53.236;6.550;2023-04-25T11:44:21;6.13;;;1.42;;
77724;SDS011;66892;53.236;6.550;2023-04-25T11:46:48;9.85;;;1.73;;
77724;SDS011;66892;53.236;6.550;2023-04-25T11:49:14;5.63;;;1.30;;
77724;SDS011;66892;53.236;6.550;2023-04-25T11:51:43;5.85;;;1.35;;
77724;SDS011;66892;53.236;6.550;2023-04-25T11:54:10;8.15;;;1.63;;
77724;SDS011;66892;53.236;6.550;2023-04-25T11:56:37;4.90;;;1.52;;
77724;SDS011;66892;53.236;6.550;2023-04-25T11:59:03;5.32;;;1.63;;
77724;SDS011;66892;53.236;6.550;2023-04-25T12:01:31;8.18;;;1.52;;
77724;SDS011;66892;53.236;6.550;2023-04-25T12:03:58;8.70;;;2.00;;
77724;SDS011;66892;53.236;6.550;2023-04-25T12:09:07;7.65;;;1.60;;
77724;SDS011;66892;53.236;6.550;2023-04-25T12:11:40;6.70;;;1.80;;
77724;SDS011;66892;53.236;6.550;2023-04-25T12:14:06;7.15;;;1.73;;
77724;SDS011;66892;53.236;6.550;2023-04-25T12:16:39;6.47;;;1.23;;
77724;SDS011;66892;53.236;6.550;2023-04-25T12:19:07;11.80;;;1.92;;
77724;SDS011;66892;53.236;6.550;2023-04-25T12:21:33;13.57;;;1.90;;
77724;SDS011;66892;53.236;6.550;2023-04-25T12:24:10;7.07;;;1.38;;
77724;SDS011;66892;53.236;6.550;2023-04-25T12:26:47;8.40;;;1.38;;
77724;SDS011;66892;53.236;6.550;2023-04-25T12:29:17;6.93;;;1.40;;
77724;SDS011;66892;53.236;6.550;2023-04-25T12:31:44;5.50;;;1.88;;
77724;SDS011;66892;53.236;6.550;2023-04-25T12:34:11;8.13;;;1.75;;
77724;SDS011;66892;53.236;6.550;2023-04-25T12:36:37;7.35;;;1.30;;
77724;SDS011;66892;53.236;6.550;2023-04-25T12:39:04;9.35;;;1.50;;
77724;SDS011;66892;53.236;6.550;2023-04-25T12:41:31;7.15;;;1.40;;
77724;SDS011;66892;53.236;6.550;2023-04-25T12:43:57;11.10;;;2.10;;
77724;SDS011;66892;53.236;6.550;2023-04-25T12:46:23;7.95;;;1.70;;
77724;SDS011;66892;53.236;6.550;2023-04-25T12:48:50;9.80;;;1.90;;
77724;SDS011;66892;53.236;6.550;2023-04-25T12:51:16;8.73;;;1.50;;
77724;SDS011;66892;53.236;6.550;2023-04-25T12:53:42;6.60;;;1.10;;
77724;SDS011;66892;53.236;6.550;2023-04-25T12:56:08;4.53;;;1.30;;
77724;SDS011;66892;53.236;6.550;2023-04-25T12:58:35;7.63;;;1.50;;
77724;SDS011;66892;53.236;6.550;2023-04-25T13:01:01;5.18;;;1.63;;
77724;SDS011;66892;53.236;6.550;2023-04-25T13:03:27;9.57;;;1.50;;
77724;SDS011;66892;53.236;6.550;2023-04-25T13:05:54;8.32;;;1.92;;
77724;SDS011;66892;53.236;6.550;2023-04-25T13:08:20;8.10;;;1.45;;
77724;SDS011;66892;53.236;6.550;2023-04-25T13:10:47;6.38;;;1.33;;
77724;SDS011;66892;53.236;6.550;2023-04-25T13:13:13;6.35;;;1.50;;
77724;SDS011;66892;53.236;6.550;2023-04-25T13:15:40;6.18;;;1.85;;
77724;SDS011;66892;53.236;6.550;2023-04-25T13:18:06;8.85;;;1.40;;
77724;SDS011;66892;53.236;6.550;2023-04-25T13:20:32;10.38;;;1.90;;
77724;SDS011;66892;53.236;6.550;2023-04-25T13:22:58;8.57;;;1.85;;
77724;SDS011;66892;53.236;6.550;2023-04-25T13:25:25;7.63;;;1.63;;
77724;SDS011;66892;53.236;6.550;2023-04-25T13:27:51;9.60;;;1.35;;
77724;SDS011;66892;53.236;6.550;2023-04-25T13:30:17;14.65;;;1.95;;
77724;SDS011;66892;53.236;6.550;2023-04-25T13:32:44;6.22;;;1.58;;
77724;SDS011;66892;53.236;6.550;2023-04-25T13:35:11;9.25;;;1.35;;
77724;SDS011;66892;53.236;6.550;2023-04-25T13:37:39;10.95;;;1.35;;
77724;SDS011;66892;53.236;6.550;2023-04-25T13:40:06;8.40;;;1.83;;
77724;SDS011;66892;53.236;6.550;2023-04-25T13:42:34;9.05;;;2.00;;
77724;SDS011;66892;53.236;6.550;2023-04-25T13:45:00;7.18;;;1.60;;
77724;SDS011;66892;53.236;6.550;2023-04-25T13:47:26;7.28;;;1.63;;
77724;SDS011;66892;53.236;6.550;2023-04-25T13:49:54;7.22;;;1.20;;
77724;SDS011;66892;53.236;6.550;2023-04-25T13:52:20;9.77;;;1.60;;
77724;SDS011;66892;53.236;6.550;2023-04-25T13:54:46;6.15;;;1.77;;
77724;SDS011;66892;53.236;6.550;2023-04-25T13:57:12;6.00;;;1.20;;
77724;SDS011;66892;53.236;6.550;2023-04-25T13:59:38;9.65;;;1.77;;
77724;SDS011;66892;53.236;6.550;2023-04-25T14:02:06;7.32;;;2.03;;
77724;SDS011;66892;53.236;6.550;2023-04-25T14:04:33;7.40;;;1.70;;
77724;SDS011;66892;53.236;6.550;2023-04-25T14:07:00;4.88;;;1.20;;
77724;SDS011;66892;53.236;6.550;2023-04-25T14:09:27;11.57;;;1.40;;
77724;SDS011;66892;53.236;6.550;2023-04-25T14:11:54;8.77;;;1.80;;
77724;SDS011;66892;53.236;6.550;2023-04-25T14:14:20;9.13;;;1.40;;
77724;SDS011;66892;53.236;6.550;2023-04-25T14:16:47;8.45;;;1.38;;
77724;SDS011;66892;53.236;6.550;2023-04-25T14:19:14;9.35;;;1.65;;
77724;SDS011;66892;53.236;6.550;2023-04-25T14:21:40;11.32;;;1.98;;
77724;SDS011;66892;53.236;6.550;2023-04-25T14:24:07;8.90;;;1.42;;
77724;SDS011;66892;53.236;6.550;2023-04-25T14:26:33;6.45;;;1.38;;
77724;SDS011;66892;53.236;6.550;2023-04-25T14:29:02;6.43;;;1.40;;
77724;SDS011;66892;53.236;6.550;2023-04-25T14:31:29;11.00;;;1.83;;
77724;SDS011;66892;53.236;6.550;2023-04-25T14:33:55;5.97;;;1.20;;
77724;SDS011;66892;53.236;6.550;2023-04-25T14:36:21;9.85;;;1.67;;
77724;SDS011;66892;53.236;6.550;2023-04-25T14:38:47;10.50;;;1.23;;
77724;SDS011;66892;53.236;6.550;2023-04-25T14:41:15;6.93;;;1.50;;
77724;SDS011;66892;53.236;6.550;2023-04-25T14:43:41;6.97;;;1.30;;